sensor_id;sensor_type;location;lat;lon;timestamp;P1;durP1;ratioP1;P2;durP2;ratioP2
65039;SDS011;51606;45.000;38.612;2022-11-20T00:02:01;5.82;;;2.88;;
65039;SDS011;51606;45.000;38.612;2022-11-20T00:04:38;5.05;;;3.00;;
65039;SDS011;51606;45.000;38.612;2022-11-20T00:07:14;23.83;;;3.65;;
65039;SDS011;51606;45.000;38.612;2022-11-20T00:09:40;6.40;;;3.42;;
65039;SDS011;51606;45.000;38.612;2022-11-20T00:12:07;11.35;;;4.80;;
65039;SDS011;51606;45.000;38.612;2022-11-20T00:14:33;5.55;;;3.25;;
65039;SDS011;51606;45.000;38.612;2022-11-20T00:17:00;3.40;;;2.33;;
65039;SDS011;51606;45.000;38.612;2022-11-20T00:19:26;9.90;;;4.38;;
65039;SDS011;51606;45.000;38.612;2022-11-20T00:21:53;17.77;;;5.25;;
65039;SDS011;51606;45.000;38.612;2022-11-20T00:24:21;5.13;;;2.80;;
65039;SDS011;51606;45.000;38.612;2022-11-20T00:26:47;6.85;;;2.92;;
65039;SDS011;51606;45.000;38.612;2022-11-20T00:29:14;10.63;;;3.88;;
65039;SDS011;51606;45.000;38.612;2022-11-20T00:31:41;8.13;;;3.90;;
65039;SDS011;51606;45.000;38.612;2022-11-20T00:34:08;4.72;;;3.20;;
65039;SDS011;51606;45.000;38.612;2022-11-20T00:36:35;22.85;;;3.35;;
65039;SDS011;51606;45.000;38.612;2022-11-20T00:39:02;10.63;;;3.50;;
65039;SDS011;51606;45.000;38.612;2022-11-20T00:41:28;6.53;;;3.33;;
65039;SDS011;51606;45.000;38.612;2022-11-20T00:43:56;8.02;;;3.47;;
65039;SDS011;51606;45.000;38.612;2022-11-20T00:46:24;14.95;;;5.18;;
65039;SDS011;51606;45.000;38.612;2022-11-20T00:48:51;4.97;;;2.33;;
65039;SDS011;51606;45.000;38.612;2022-11-20T00:51:20;5.70;;;2.80;;
65039;SDS011;51606;45.000;38.612;2022-11-20T00:53:48;4.40;;;2.95;;
65039;SDS011;51606;45.000;38.612;2022-11-20T00:56:15;7.68;;;3.17;;
65039;SDS011;51606;45.000;38.612;2022-11-20T00:58:46;5.55;;;3.08;;
65039;SDS011;51606;45.000;38.612;2022-11-20T01:01:15;2.83;;;1.70;;
65039;SDS011;51606;45.000;38.612;2022-11-20T01:03:44;4.40;;;2.90;;
65039;SDS011;51606;45.000;38.612;2022-11-20T01:06:19;10.70;;;2.83;;
65039;SDS011;51606;45.000;38.612;2022-11-20T01:08:47;8.30;;;2.83;;
65039;SDS011;51606;45.000;38.612;2022-11-20T01:11:16;6.50;;;2.85;;
65039;SDS011;51606;45.000;38.612;2022-11-20T01:13:45;5.07;;;2.63;;
65039;SDS011;51606;45.000;38.612;2022-11-20T01:18:47;4.90;;;2.67;;
65039;SDS011;51606;45.000;38.612;2022-11-20T01:21:18;23.58;;;2.83;;
65039;SDS011;51606;45.000;38.612;2022-11-20T01:23:47;11.35;;;1.83;;
65039;SDS011;51606;45.000;38.612;2022-11-20T01:26:16;2.90;;;1.50;;
65039;SDS011;51606;45.000;38.612;2022-11-20T01:28:44;3.30;;;2.25;;
65039;SDS011;51606;45.000;38.612;2022-11-20T01:33:38;2.90;;;1.67;;
65039;SDS011;51606;45.000;38.612;2022-11-20T01:36:06;2.03;;;1.23;;
65039;SDS011;51606;45.000;38.612;2022-11-20T01:38:34;1.23;;;1.13;;
65039;SDS011;51606;45.000;38.612;2022-11-20T01:41:00;3.47;;;2.15;;
65039;SDS011;51606;45.000;38.612;2022-11-20T01:43:27;3.53;;;2.42;;
65039;SDS011;51606;45.000;38.612;2022-11-20T01:46:12;20.33;;;2.35;;
65039;SDS011;51606;45.000;38.612;2022-11-20T01:51:13;88.13;;;5.93;;
65039;SDS011;51606;45.000;38.612;2022-11-20T01:53:49;63.40;;;8.05;;
65039;SDS011;51606;45.000;38.612;2022-11-20T01:56:18;32.75;;;3.38;;
65039;SDS011;51606;45.000;38.612;2022-11-20T01:58:47;4.05;;;2.30;;
65039;SDS011;51606;45.000;38.612;2022-11-20T02:01:18;8.90;;;2.63;;
65039;SDS011;51606;45.000;38.612;2022-11-20T02:03:44;6.82;;;2.50;;
65039;SDS011;51606;45.000;38.612;2022-11-20T02:06:19;4.95;;;2.20;;
65039;SDS011;51606;45.000;38.612;2022-11-20T02:08:51;3.28;;;2.17;;
65039;SDS011;51606;45.000;38.612;2022-11-20T02:11:18;3.17;;;2.13;;
65039;SDS011;51606;45.000;38.612;2022-11-20T02:13:45;3.17;;;2.00;;
65039;SDS011;51606;45.000;38.612;2022-11-20T02:18:50;193.32;;;9.48;;
65039;SDS011;51606;45.000;38.612;2022-11-20T02:21:23;259.48;;;10.35;;
65039;SDS011;51606;45.000;38.612;2022-11-20T02:24:00;220.95;;;9.88;;
65039;SDS011;51606;45.000;38.612;2022-11-20T02:26:27;1.52;;;1.33;;
65039;SDS011;51606;45.000;38.612;2022-11-20T02:28:56;44.47;;;4.50;;
65039;SDS011;51606;45.000;38.612;2022-11-20T02:31:24;4.22;;;1.77;;
65039;SDS011;51606;45.000;38.612;2022-11-20T02:33:55;263.17;;;11.63;;
65039;SDS011;51606;45.000;38.612;2022-11-20T02:36:22;131.43;;;6.88;;
65039;SDS011;51606;45.000;38.612;2022-11-20T02:38:51;394.35;;;15.95;;
65039;SDS011;51606;45.000;38.612;2022-11-20T02:41:18;1.77;;;1.65;;
65039;SDS011;51606;45.000;38.612;2022-11-20T02:43:45;26.35;;;2.67;;
65039;SDS011;51606;45.000;38.612;2022-11-20T02:46:11;396.00;;;11.23;;
65039;SDS011;51606;45.000;38.612;2022-11-20T02:48:38;171.10;;;6.50;;
65039;SDS011;51606;45.000;38.612;2022-11-20T02:51:04;22.58;;;2.30;;
65039;SDS011;51606;45.000;38.612;2022-11-20T02:53:30;15.02;;;2.08;;
65039;SDS011;51606;45.000;38.612;2022-11-20T02:55:57;37.22;;;2.17;;
65039;SDS011;51606;45.000;38.612;2022-11-20T02:58:23;55.28;;;3.95;;
65039;SDS011;51606;45.000;38.612;2022-11-20T03:00:50;2.72;;;1.70;;
65039;SDS011;51606;45.000;38.612;2022-11-20T03:03:17;36.20;;;2.20;;
65039;SDS011;51606;45.000;38.612;2022-11-20T03:05:44;126.65;;;3.53;;
65039;SDS011;51606;45.000;38.612;2022-11-20T03:08:10;213.18;;;7.65;;
65039;SDS011;51606;45.000;38.612;2022-11-20T03:10:36;291.48;;;8.57;;
65039;SDS011;51606;45.000;38.612;2022-11-20T03:13:03;61.63;;;2.97;;
65039;SDS011;51606;45.000;38.612;2022-11-20T03:15:30;44.30;;;2.08;;
65039;SDS011;51606;45.000;38.612;2022-11-20T03:17:56;18.65;;;2.58;;
65039;SDS011;51606;45.000;38.612;2022-11-20T03:20:23;65.25;;;3.67;;
65039;SDS011;51606;45.000;38.612;2022-11-20T03:22:49;22.38;;;2.85;;
65039;SDS011;51606;45.000;38.612;2022-11-20T03:25:15;6.60;;;1.80;;
65039;SDS011;51606;45.000;38.612;2022-11-20T03:27:42;48.20;;;3.47;;
65039;SDS011;51606;45.000;38.612;2022-11-20T03:30:08;3.88;;;1.77;;
65039;SDS011;51606;45.000;38.612;2022-11-20T03:32:35;2.55;;;1.92;;
65039;SDS011;51606;45.000;38.612;2022-11-20T03:35:02;71.57;;;2.75;;
65039;SDS011;51606;45.000;38.612;2022-11-20T03:37:28;277.23;;;8.15;;
65039;SDS011;51606;45.000;38.612;2022-11-20T03:39:55;90.80;;;5.53;;
65039;SDS011;51606;45.000;38.612;2022-11-20T03:42:21;149.35;;;5.78;;
65039;SDS011;51606;45.000;38.612;2022-11-20T03:45:08;207.43;;;6.10;;
65039;SDS011;51606;45.000;38.612;2022-11-20T03:47:35;101.68;;;4.40;;
65039;SDS011;51606;45.000;38.612;2022-11-20T03:50:01;131.15;;;4.38;;
65039;SDS011;51606;45.000;38.612;2022-11-20T03:52:28;181.43;;;6.68;;
65039;SDS011;51606;45.000;38.612;2022-11-20T03:54:55;3.25;;;1.70;;
65039;SDS011;51606;45.000;38.612;2022-11-20T03:57:21;200.02;;;7.18;;
65039;SDS011;51606;45.000;38.612;2022-11-20T03:59:48;80.22;;;3.85;;
65039;SDS011;51606;45.000;38.612;2022-11-20T04:02:14;2.20;;;1.77;;
65039;SDS011;51606;45.000;38.612;2022-11-20T04:04:40;114.35;;;4.50;;
65039;SDS011;51606;45.000;38.612;2022-11-20T04:07:08;303.88;;;7.82;;
65039;SDS011;51606;45.000;38.612;2022-11-20T04:09:34;161.20;;;5.95;;
65039;SDS011;51606;45.000;38.612;2022-11-20T04:12:01;211.23;;;5.15;;
65039;SDS011;51606;45.000;38.612;2022-11-20T04:14:27;126.95;;;7.57;;
65039;SDS011;51606;45.000;38.612;2022-11-20T04:16:54;211.38;;;6.95;;
65039;SDS011;51606;45.000;38.612;2022-11-20T04:19:20;111.13;;;7.18;;
65039;SDS011;51606;45.000;38.612;2022-11-20T04:21:46;141.27;;;6.53;;
65039;SDS011;51606;45.000;38.612;2022-11-20T04:24:13;2.17;;;1.80;;
65039;SDS011;51606;45.000;38.612;2022-11-20T04:26:39;11.27;;;2.75;;
65039;SDS011;51606;45.000;38.612;2022-11-20T04:29:06;122.72;;;5.00;;
65039;SDS011;51606;45.000;38.612;2022-11-20T04:31:36;63.38;;;3.78;;
65039;SDS011;51606;45.000;38.612;2022-11-20T04:34:03;11.35;;;3.08;;
65039;SDS011;51606;45.000;38.612;2022-11-20T04:36:30;3.15;;;2.50;;
65039;SDS011;51606;45.000;38.612;2022-11-20T04:39:01;11.30;;;2.42;;
65039;SDS011;51606;45.000;38.612;2022-11-20T04:41:31;5.32;;;2.72;;
65039;SDS011;51606;45.000;38.612;2022-11-20T04:43:59;56.85;;;4.32;;
65039;SDS011;51606;45.000;38.612;2022-11-20T04:46:31;17.08;;;4.57;;
65039;SDS011;51606;45.000;38.612;2022-11-20T04:49:02;107.60;;;5.45;;
65039;SDS011;51606;45.000;38.612;2022-11-20T04:51:29;44.17;;;2.40;;
65039;SDS011;51606;45.000;38.612;2022-11-20T04:53:55;34.97;;;3.08;;
65039;SDS011;51606;45.000;38.612;2022-11-20T04:56:21;20.90;;;2.70;;
65039;SDS011;51606;45.000;38.612;2022-11-20T04:58:48;86.70;;;4.18;;
65039;SDS011;51606;45.000;38.612;2022-11-20T05:01:16;65.22;;;4.13;;
65039;SDS011;51606;45.000;38.612;2022-11-20T05:03:48;34.47;;;2.72;;
65039;SDS011;51606;45.000;38.612;2022-11-20T05:06:15;47.95;;;5.07;;
65039;SDS011;51606;45.000;38.612;2022-11-20T05:08:43;29.60;;;3.78;;
65039;SDS011;51606;45.000;38.612;2022-11-20T05:11:10;83.22;;;5.55;;
65039;SDS011;51606;45.000;38.612;2022-11-20T05:13:38;43.30;;;3.95;;
65039;SDS011;51606;45.000;38.612;2022-11-20T05:16:06;28.48;;;4.45;;
65039;SDS011;51606;45.000;38.612;2022-11-20T05:18:35;4.03;;;2.72;;
65039;SDS011;51606;45.000;38.612;2022-11-20T05:21:03;12.57;;;4.35;;
65039;SDS011;51606;45.000;38.612;2022-11-20T05:23:30;18.40;;;4.50;;
65039;SDS011;51606;45.000;38.612;2022-11-20T05:25:58;5.95;;;3.92;;
65039;SDS011;51606;45.000;38.612;2022-11-20T05:28:25;7.45;;;4.38;;
65039;SDS011;51606;45.000;38.612;2022-11-20T05:30:53;5.57;;;3.88;;
65039;SDS011;51606;45.000;38.612;2022-11-20T05:33:19;15.20;;;5.45;;
65039;SDS011;51606;45.000;38.612;2022-11-20T05:35:46;6.10;;;3.58;;
65039;SDS011;51606;45.000;38.612;2022-11-20T05:49:38;7.45;;;4.70;;
65039;SDS011;51606;45.000;38.612;2022-11-20T05:52:05;15.52;;;7.80;;
65039;SDS011;51606;45.000;38.612;2022-11-20T05:54:31;22.98;;;7.63;;
65039;SDS011;51606;45.000;38.612;2022-11-20T05:56:58;16.08;;;7.57;;
65039;SDS011;51606;45.000;38.612;2022-11-20T05:59:24;17.88;;;8.07;;
65039;SDS011;51606;45.000;38.612;2022-11-20T06:01:50;8.65;;;4.95;;
65039;SDS011;51606;45.000;38.612;2022-11-20T06:04:16;8.95;;;4.70;;
65039;SDS011;51606;45.000;38.612;2022-11-20T06:06:43;5.03;;;3.47;;
65039;SDS011;51606;45.000;38.612;2022-11-20T06:09:09;6.60;;;4.43;;
65039;SDS011;51606;45.000;38.612;2022-11-20T06:11:36;15.57;;;4.95;;
65039;SDS011;51606;45.000;38.612;2022-11-20T06:14:02;10.30;;;4.63;;
65039;SDS011;51606;45.000;38.612;2022-11-20T06:16:29;7.47;;;4.35;;
65039;SDS011;51606;45.000;38.612;2022-11-20T06:18:55;11.43;;;4.05;;
65039;SDS011;51606;45.000;38.612;2022-11-20T06:21:21;11.02;;;3.90;;
65039;SDS011;51606;45.000;38.612;2022-11-20T06:23:48;7.88;;;3.90;;
65039;SDS011;51606;45.000;38.612;2022-11-20T06:26:17;9.68;;;4.93;;
65039;SDS011;51606;45.000;38.612;2022-11-20T06:28:48;8.50;;;4.75;;
65039;SDS011;51606;45.000;38.612;2022-11-20T06:31:15;9.63;;;5.63;;
65039;SDS011;51606;45.000;38.612;2022-11-20T06:33:42;16.40;;;5.53;;
65039;SDS011;51606;45.000;38.612;2022-11-20T06:36:13;9.57;;;4.82;;
65039;SDS011;51606;45.000;38.612;2022-11-20T06:38:42;6.57;;;3.78;;
65039;SDS011;51606;45.000;38.612;2022-11-20T06:41:10;9.18;;;5.13;;
65039;SDS011;51606;45.000;38.612;2022-11-20T06:43:39;13.32;;;4.60;;
65039;SDS011;51606;45.000;38.612;2022-11-20T06:46:06;10.85;;;4.40;;
65039;SDS011;51606;45.000;38.612;2022-11-20T06:48:32;9.95;;;4.70;;
65039;SDS011;51606;45.000;38.612;2022-11-20T06:50:59;8.30;;;3.80;;
65039;SDS011;51606;45.000;38.612;2022-11-20T06:53:28;8.20;;;4.80;;
65039;SDS011;51606;45.000;38.612;2022-11-20T06:55:55;6.32;;;3.70;;
65039;SDS011;51606;45.000;38.612;2022-11-20T06:58:23;7.47;;;4.00;;
65039;SDS011;51606;45.000;38.612;2022-11-20T07:00:53;4.93;;;2.97;;
65039;SDS011;51606;45.000;38.612;2022-11-20T07:03:23;8.88;;;4.00;;
65039;SDS011;51606;45.000;38.612;2022-11-20T07:05:49;11.10;;;3.53;;
65039;SDS011;51606;45.000;38.612;2022-11-20T07:08:16;8.02;;;4.15;;
65039;SDS011;51606;45.000;38.612;2022-11-20T07:10:42;7.43;;;4.20;;
65039;SDS011;51606;45.000;38.612;2022-11-20T07:13:08;6.78;;;3.42;;
65039;SDS011;51606;45.000;38.612;2022-11-20T07:15:35;6.32;;;3.75;;
65039;SDS011;51606;45.000;38.612;2022-11-20T07:18:20;8.45;;;4.78;;
65039;SDS011;51606;45.000;38.612;2022-11-20T07:20:46;10.63;;;4.90;;
65039;SDS011;51606;45.000;38.612;2022-11-20T07:23:13;10.35;;;4.40;;
65039;SDS011;51606;45.000;38.612;2022-11-20T07:25:39;5.57;;;4.03;;
65039;SDS011;51606;45.000;38.612;2022-11-20T07:28:06;6.70;;;3.55;;
65039;SDS011;51606;45.000;38.612;2022-11-20T07:30:32;6.88;;;3.58;;
65039;SDS011;51606;45.000;38.612;2022-11-20T07:32:58;11.65;;;4.45;;
65039;SDS011;51606;45.000;38.612;2022-11-20T07:35:25;5.05;;;4.22;;
65039;SDS011;51606;45.000;38.612;2022-11-20T07:37:51;9.27;;;5.22;;
65039;SDS011;51606;45.000;38.612;2022-11-20T07:40:18;8.00;;;4.43;;
65039;SDS011;51606;45.000;38.612;2022-11-20T07:42:48;11.90;;;4.05;;
65039;SDS011;51606;45.000;38.612;2022-11-20T07:45:16;4.65;;;3.42;;
65039;SDS011;51606;45.000;38.612;2022-11-20T07:47:43;10.40;;;5.30;;
65039;SDS011;51606;45.000;38.612;2022-11-20T07:50:09;8.85;;;4.70;;
65039;SDS011;51606;45.000;38.612;2022-11-20T07:52:36;9.75;;;5.10;;
65039;SDS011;51606;45.000;38.612;2022-11-20T07:55:03;9.07;;;5.40;;
65039;SDS011;51606;45.000;38.612;2022-11-20T07:57:30;11.82;;;6.35;;
65039;SDS011;51606;45.000;38.612;2022-11-20T07:59:57;14.80;;;6.65;;
65039;SDS011;51606;45.000;38.612;2022-11-20T08:02:23;12.50;;;7.00;;
65039;SDS011;51606;45.000;38.612;2022-11-20T08:04:49;13.18;;;6.60;;
65039;SDS011;51606;45.000;38.612;2022-11-20T08:07:16;15.48;;;7.07;;
65039;SDS011;51606;45.000;38.612;2022-11-20T08:09:42;16.20;;;6.55;;
65039;SDS011;51606;45.000;38.612;2022-11-20T08:12:15;9.95;;;5.97;;
65039;SDS011;51606;45.000;38.612;2022-11-20T08:15:12;12.07;;;7.53;;
65039;SDS011;51606;45.000;38.612;2022-11-20T08:17:39;17.48;;;5.63;;
65039;SDS011;51606;45.000;38.612;2022-11-20T08:20:05;15.23;;;6.72;;
65039;SDS011;51606;45.000;38.612;2022-11-20T08:22:32;15.63;;;7.15;;
65039;SDS011;51606;45.000;38.612;2022-11-20T08:24:58;16.52;;;7.97;;
65039;SDS011;51606;45.000;38.612;2022-11-20T08:27:25;14.75;;;6.35;;
65039;SDS011;51606;45.000;38.612;2022-11-20T08:29:51;9.43;;;5.55;;
65039;SDS011;51606;45.000;38.612;2022-11-20T08:32:18;8.13;;;5.70;;
65039;SDS011;51606;45.000;38.612;2022-11-20T08:34:44;14.63;;;6.18;;
65039;SDS011;51606;45.000;38.612;2022-11-20T08:37:11;17.13;;;6.63;;
65039;SDS011;51606;45.000;38.612;2022-11-20T08:39:38;11.23;;;5.55;;
65039;SDS011;51606;45.000;38.612;2022-11-20T08:42:07;8.10;;;4.75;;
65039;SDS011;51606;45.000;38.612;2022-11-20T08:44:34;11.27;;;5.75;;
65039;SDS011;51606;45.000;38.612;2022-11-20T08:47:00;14.32;;;6.63;;
65039;SDS011;51606;45.000;38.612;2022-11-20T08:49:27;8.20;;;5.72;;
65039;SDS011;51606;45.000;38.612;2022-11-20T08:51:53;14.43;;;6.32;;
65039;SDS011;51606;45.000;38.612;2022-11-20T08:54:20;16.40;;;5.72;;
65039;SDS011;51606;45.000;38.612;2022-11-20T08:56:48;9.80;;;5.25;;
65039;SDS011;51606;45.000;38.612;2022-11-20T08:59:14;11.30;;;5.38;;
65039;SDS011;51606;45.000;38.612;2022-11-20T09:01:41;12.27;;;5.38;;
65039;SDS011;51606;45.000;38.612;2022-11-20T09:04:07;13.15;;;4.72;;
65039;SDS011;51606;45.000;38.612;2022-11-20T09:06:33;12.23;;;5.32;;
65039;SDS011;51606;45.000;38.612;2022-11-20T09:09:00;7.90;;;5.20;;
65039;SDS011;51606;45.000;38.612;2022-11-20T09:11:26;13.20;;;6.00;;
65039;SDS011;51606;45.000;38.612;2022-11-20T09:13:52;15.63;;;5.45;;
65039;SDS011;51606;45.000;38.612;2022-11-20T09:16:19;8.75;;;4.65;;
65039;SDS011;51606;45.000;38.612;2022-11-20T09:18:45;8.63;;;4.25;;
65039;SDS011;51606;45.000;38.612;2022-11-20T09:21:12;9.07;;;4.78;;
65039;SDS011;51606;45.000;38.612;2022-11-20T09:23:39;12.13;;;3.85;;
65039;SDS011;51606;45.000;38.612;2022-11-20T09:26:09;9.80;;;4.45;;
65039;SDS011;51606;45.000;38.612;2022-11-20T09:28:37;5.90;;;3.65;;
65039;SDS011;51606;45.000;38.612;2022-11-20T09:31:07;4.50;;;3.30;;
65039;SDS011;51606;45.000;38.612;2022-11-20T09:33:34;9.38;;;4.25;;
65039;SDS011;51606;45.000;38.612;2022-11-20T09:36:01;5.28;;;2.83;;
65039;SDS011;51606;45.000;38.612;2022-11-20T09:38:28;9.35;;;3.42;;
65039;SDS011;51606;45.000;38.612;2022-11-20T09:41:01;8.40;;;3.53;;
65039;SDS011;51606;45.000;38.612;2022-11-20T09:46:36;5.65;;;3.03;;
65039;SDS011;51606;45.000;38.612;2022-11-20T09:54:20;7.75;;;3.50;;
65039;SDS011;51606;45.000;38.612;2022-11-20T09:56:50;6.65;;;3.60;;
65039;SDS011;51606;45.000;38.612;2022-11-20T09:59:36;7.53;;;3.85;;
65039;SDS011;51606;45.000;38.612;2022-11-20T10:02:16;13.50;;;3.78;;
65039;SDS011;51606;45.000;38.612;2022-11-20T10:04:53;5.97;;;4.00;;
65039;SDS011;51606;45.000;38.612;2022-11-20T10:07:30;5.50;;;3.53;;
65039;SDS011;51606;45.000;38.612;2022-11-20T10:10:05;7.82;;;3.63;;
65039;SDS011;51606;45.000;38.612;2022-11-20T10:24:34;8.10;;;3.75;;
65039;SDS011;51606;45.000;38.612;2022-11-20T10:30:06;7.28;;;3.70;;
65039;SDS011;51606;45.000;38.612;2022-11-20T10:32:47;5.97;;;3.45;;
65039;SDS011;51606;45.000;38.612;2022-11-20T10:35:50;4.65;;;2.38;;
65039;SDS011;51606;45.000;38.612;2022-11-20T10:38:30;3.90;;;2.42;;
65039;SDS011;51606;45.000;38.612;2022-11-20T10:41:15;4.90;;;2.53;;
65039;SDS011;51606;45.000;38.612;2022-11-20T10:44:00;7.25;;;3.53;;
65039;SDS011;51606;45.000;38.612;2022-11-20T10:46:43;8.90;;;3.38;;
65039;SDS011;51606;45.000;38.612;2022-11-20T10:49:14;5.93;;;2.40;;
65039;SDS011;51606;45.000;38.612;2022-11-20T10:55:06;2.80;;;1.63;;
65039;SDS011;51606;45.000;38.612;2022-11-20T10:58:33;4.65;;;3.13;;
65039;SDS011;51606;45.000;38.612;2022-11-20T11:00:39;2.63;;;1.70;;
65039;SDS011;51606;45.000;38.612;2022-11-20T11:03:27;6.32;;;1.80;;
65039;SDS011;51606;45.000;38.612;2022-11-20T11:06:06;4.85;;;2.70;;
65039;SDS011;51606;45.000;38.612;2022-11-20T11:08:35;3.08;;;1.70;;
65039;SDS011;51606;45.000;38.612;2022-11-20T11:11:23;2.40;;;1.60;;
65039;SDS011;51606;45.000;38.612;2022-11-20T11:13:53;1.98;;;1.38;;
65039;SDS011;51606;45.000;38.612;2022-11-20T11:16:31;1.70;;;1.33;;
65039;SDS011;51606;45.000;38.612;2022-11-20T11:19:10;4.45;;;1.80;;
65039;SDS011;51606;45.000;38.612;2022-11-20T11:21:38;2.15;;;1.42;;
65039;SDS011;51606;45.000;38.612;2022-11-20T11:24:29;2.42;;;1.85;;
65039;SDS011;51606;45.000;38.612;2022-11-20T11:26:57;3.00;;;1.73;;
65039;SDS011;51606;45.000;38.612;2022-11-20T11:29:24;5.30;;;1.80;;
65039;SDS011;51606;45.000;38.612;2022-11-20T11:32:06;2.55;;;1.90;;
65039;SDS011;51606;45.000;38.612;2022-11-20T11:34:44;5.90;;;2.42;;
65039;SDS011;51606;45.000;38.612;2022-11-20T11:37:15;4.70;;;2.00;;
65039;SDS011;51606;45.000;38.612;2022-11-20T11:39:46;2.63;;;1.50;;
65039;SDS011;51606;45.000;38.612;2022-11-20T11:42:16;3.17;;;1.70;;
65039;SDS011;51606;45.000;38.612;2022-11-20T11:44:45;2.25;;;1.70;;
65039;SDS011;51606;45.000;38.612;2022-11-20T11:57:54;11.60;;;2.50;;
65039;SDS011;51606;45.000;38.612;2022-11-20T12:00:36;5.43;;;2.63;;
65039;SDS011;51606;45.000;38.612;2022-11-20T12:03:11;9.45;;;1.98;;
65039;SDS011;51606;45.000;38.612;2022-11-20T12:13:42;1.92;;;1.45;;
65039;SDS011;51606;45.000;38.612;2022-11-20T12:16:17;7.22;;;1.90;;
65039;SDS011;51606;45.000;38.612;2022-11-20T12:18:49;7.00;;;1.65;;
65039;SDS011;51606;45.000;38.612;2022-11-20T12:21:27;3.13;;;2.05;;
65039;SDS011;51606;45.000;38.612;2022-11-20T12:25:04;5.82;;;1.83;;
65039;SDS011;51606;45.000;38.612;2022-11-20T12:29:54;2.67;;;1.30;;
65039;SDS011;51606;45.000;38.612;2022-11-20T12:32:39;3.08;;;1.55;;
65039;SDS011;51606;45.000;38.612;2022-11-20T12:59:33;1.83;;;1.42;;
65039;SDS011;51606;45.000;38.612;2022-11-20T13:07:44;5.22;;;2.20;;
65039;SDS011;51606;45.000;38.612;2022-11-20T13:10:13;9.07;;;2.00;;
65039;SDS011;51606;45.000;38.612;2022-11-20T13:13:02;5.95;;;2.03;;
65039;SDS011;51606;45.000;38.612;2022-11-20T13:15:59;2.35;;;1.77;;
65039;SDS011;51606;45.000;38.612;2022-11-20T13:18:36;2.78;;;1.95;;
65039;SDS011;51606;45.000;38.612;2022-11-20T13:21:15;3.33;;;1.83;;
65039;SDS011;51606;45.000;38.612;2022-11-20T13:23:46;3.47;;;1.45;;
65039;SDS011;51606;45.000;38.612;2022-11-20T13:26:22;3.10;;;1.83;;
65039;SDS011;51606;45.000;38.612;2022-11-20T13:29:09;4.28;;;1.90;;
65039;SDS011;51606;45.000;38.612;2022-11-20T13:31:44;3.30;;;2.10;;
65039;SDS011;51606;45.000;38.612;2022-11-20T13:34:14;6.43;;;2.15;;
65039;SDS011;51606;45.000;38.612;2022-11-20T13:36:51;5.03;;;1.90;;
65039;SDS011;51606;45.000;38.612;2022-11-20T13:39:26;5.18;;;1.70;;
65039;SDS011;51606;45.000;38.612;2022-11-20T13:42:01;9.98;;;1.92;;
65039;SDS011;51606;45.000;38.612;2022-11-20T13:44:54;12.73;;;2.08;;
65039;SDS011;51606;45.000;38.612;2022-11-20T13:47:24;3.00;;;2.03;;
65039;SDS011;51606;45.000;38.612;2022-11-20T13:49:53;19.17;;;2.65;;
65039;SDS011;51606;45.000;38.612;2022-11-20T13:52:39;2.88;;;1.67;;
65039;SDS011;51606;45.000;38.612;2022-11-20T13:55:12;3.55;;;1.83;;
65039;SDS011;51606;45.000;38.612;2022-11-20T14:00:33;5.88;;;1.55;;
65039;SDS011;51606;45.000;38.612;2022-11-20T14:03:23;2.95;;;1.92;;
65039;SDS011;51606;45.000;38.612;2022-11-20T14:06:05;6.05;;;2.15;;
65039;SDS011;51606;45.000;38.612;2022-11-20T14:11:27;5.45;;;3.00;;
65039;SDS011;51606;45.000;38.612;2022-11-20T14:16:49;2.58;;;1.67;;
65039;SDS011;51606;45.000;38.612;2022-11-20T14:21:49;5.18;;;2.00;;
65039;SDS011;51606;45.000;38.612;2022-11-20T14:24:37;4.78;;;1.90;;
65039;SDS011;51606;45.000;38.612;2022-11-20T14:27:04;5.30;;;1.42;;
65039;SDS011;51606;45.000;38.612;2022-11-20T14:29:34;1.85;;;1.33;;
65039;SDS011;51606;45.000;38.612;2022-11-20T14:32:03;4.45;;;1.92;;
65039;SDS011;51606;45.000;38.612;2022-11-20T14:34:31;3.10;;;2.05;;
65039;SDS011;51606;45.000;38.612;2022-11-20T14:37:06;2.17;;;1.40;;
65039;SDS011;51606;45.000;38.612;2022-11-20T14:42:19;3.33;;;1.83;;
65039;SDS011;51606;45.000;38.612;2022-11-20T14:44:50;5.55;;;2.22;;
65039;SDS011;51606;45.000;38.612;2022-11-20T14:47:26;2.20;;;1.60;;
65039;SDS011;51606;45.000;38.612;2022-11-20T14:49:55;1.55;;;1.30;;
65039;SDS011;51606;45.000;38.612;2022-11-20T14:52:24;3.08;;;1.38;;
65039;SDS011;51606;45.000;38.612;2022-11-20T14:55:01;2.05;;;1.55;;
65039;SDS011;51606;45.000;38.612;2022-11-20T15:00:19;3.97;;;2.08;;
65039;SDS011;51606;45.000;38.612;2022-11-20T15:02:47;2.35;;;1.52;;
65039;SDS011;51606;45.000;38.612;2022-11-20T15:08:12;3.55;;;1.77;;
65039;SDS011;51606;45.000;38.612;2022-11-20T15:10:45;3.95;;;2.00;;
65039;SDS011;51606;45.000;38.612;2022-11-20T15:13:36;5.85;;;1.88;;
65039;SDS011;51606;45.000;38.612;2022-11-20T15:16:49;2.83;;;2.17;;
65039;SDS011;51606;45.000;38.612;2022-11-20T15:18:52;4.40;;;2.28;;
65039;SDS011;51606;45.000;38.612;2022-11-20T15:21:20;4.97;;;3.17;;
65039;SDS011;51606;45.000;38.612;2022-11-20T15:23:47;2.95;;;1.65;;
65039;SDS011;51606;45.000;38.612;2022-11-20T15:26:15;3.55;;;2.10;;
65039;SDS011;51606;45.000;38.612;2022-11-20T15:28:52;3.03;;;1.92;;
65039;SDS011;51606;45.000;38.612;2022-11-20T15:31:20;6.68;;;2.20;;
65039;SDS011;51606;45.000;38.612;2022-11-20T15:33:48;6.22;;;2.47;;
65039;SDS011;51606;45.000;38.612;2022-11-20T15:36:20;7.25;;;2.22;;
65039;SDS011;51606;45.000;38.612;2022-11-20T15:38:46;1.77;;;1.45;;
65039;SDS011;51606;45.000;38.612;2022-11-20T15:41:13;4.90;;;2.10;;
65039;SDS011;51606;45.000;38.612;2022-11-20T15:43:49;3.55;;;2.08;;
65039;SDS011;51606;45.000;38.612;2022-11-20T15:46:36;3.42;;;1.58;;
65039;SDS011;51606;45.000;38.612;2022-11-20T15:49:11;3.47;;;2.10;;
65039;SDS011;51606;45.000;38.612;2022-11-20T15:52:08;3.03;;;2.03;;
65039;SDS011;51606;45.000;38.612;2022-11-20T15:54:35;2.25;;;1.45;;
65039;SDS011;51606;45.000;38.612;2022-11-20T15:57:09;2.83;;;1.60;;
65039;SDS011;51606;45.000;38.612;2022-11-20T15:59:36;3.15;;;1.85;;
65039;SDS011;51606;45.000;38.612;2022-11-20T16:02:17;7.32;;;3.10;;
65039;SDS011;51606;45.000;38.612;2022-11-20T16:04:44;2.70;;;1.88;;
65039;SDS011;51606;45.000;38.612;2022-11-20T16:07:10;6.13;;;1.60;;
65039;SDS011;51606;45.000;38.612;2022-11-20T16:09:37;3.50;;;1.30;;
65039;SDS011;51606;45.000;38.612;2022-11-20T16:12:04;9.80;;;2.20;;
65039;SDS011;51606;45.000;38.612;2022-11-20T16:14:31;2.88;;;1.63;;
65039;SDS011;51606;45.000;38.612;2022-11-20T16:17:51;3.90;;;1.90;;
65039;SDS011;51606;45.000;38.612;2022-11-20T16:20:17;6.75;;;2.30;;
65039;SDS011;51606;45.000;38.612;2022-11-20T16:22:44;3.80;;;1.88;;
65039;SDS011;51606;45.000;38.612;2022-11-20T16:25:10;2.58;;;1.98;;
65039;SDS011;51606;45.000;38.612;2022-11-20T16:27:37;8.15;;;2.22;;
65039;SDS011;51606;45.000;38.612;2022-11-20T16:30:03;2.65;;;1.55;;
65039;SDS011;51606;45.000;38.612;2022-11-20T16:32:30;2.50;;;1.83;;
65039;SDS011;51606;45.000;38.612;2022-11-20T16:37:44;4.30;;;1.80;;
65039;SDS011;51606;45.000;38.612;2022-11-20T16:40:10;7.97;;;2.00;;
65039;SDS011;51606;45.000;38.612;2022-11-20T16:42:37;5.93;;;1.98;;
65039;SDS011;51606;45.000;38.612;2022-11-20T16:45:03;6.65;;;2.72;;
65039;SDS011;51606;45.000;38.612;2022-11-20T16:47:33;7.05;;;2.08;;
65039;SDS011;51606;45.000;38.612;2022-11-20T16:52:53;9.65;;;3.03;;